Weather reports worldwide

Advertisment
Fylingdales, United Kingdom (3281): temperature & dewpoint: 16.05.2018 16:00:00 - 22.05.2018 16:00:00 (BST)Fylingdales, United Kingdom (3281): wind speed & gusts: 16.05.2018 16:00:00 - 22.05.2018 16:00:00 (BST)Fylingdales, United Kingdom (3281): wind direction: 16.05.2018 16:00:00 - 22.05.2018 16:00:00 (BST)Fylingdales, United Kingdom (3281): precipitation: 16.05.2018 16:00:00 - 22.05.2018 16:00:00 (BST)
Date & Time tt [°C] td [°C] ff [km/h] ff [kn] fx [km/h] fx [kn] dd rr [mm]
22.05.2018 16:00:00 9,3 7,7 28 15 - - NNW 0,0
22.05.2018 15:00:00 10,1 7,5 29 16 - - NNW 0,0
22.05.2018 14:00:00 8,7 7,8 24 13 - - NNW 0,0
22.05.2018 13:00:00 9,3 8,2 28 15 - - NNW 0,0
22.05.2018 12:00:00 8,8 7,7 28 15 46 25 NNW 0,0
22.05.2018 11:00:00 8,6 7,9 34 18 46 25 N 0,0
22.05.2018 10:00:00 8,5 8,4 34 18 - - NNW 0,0
22.05.2018 09:00:00 8,2 8,2 28 15 - - NNW 0,0
22.05.2018 08:00:00 8,2 8,2 28 15 - - NNW 0,0
22.05.2018 07:00:00 7,9 7,9 29 16 - - N 0,0
22.05.2018 06:00:00 7,8 7,8 26 14 - - NNW 0,0
22.05.2018 05:00:00 8,0 8,0 29 16 46 25 N 0,0
22.05.2018 04:00:00 9,3 9,1 28 15 - - N 0,0
22.05.2018 03:00:00 9,1 9,0 21 11 - - NNW 0,0
22.05.2018 02:00:00 8,0 7,4 15 8 - - N 0,0
22.05.2018 01:00:00 8,5 6,3 13 7 - - NNW 0,0
22.05.2018 00:00:00 9,5 6,6 8 4 - - N 0,0
21.05.2018 23:00:00 10,9 5,5 8 4 - - NNE 0,0
21.05.2018 22:00:00 11,1 4,1 5 3 - - ENE 0,0
21.05.2018 21:00:00 12,8 6,0 4 2 - - ENE 0,0
21.05.2018 20:00:00 14,8 5,3 11 6 - - E 0,0
21.05.2018 19:00:00 16,8 5,6 13 7 - - ENE 0,0
21.05.2018 18:00:00 18,2 4,1 15 8 - - ENE 0,0
21.05.2018 17:00:00 19,3 4,3 18 10 - - E 0,0
21.05.2018 16:00:00 19,6 5,3 18 10 - - E 0,0
21.05.2018 15:00:00 18,6 6,7 22 12 - - ENE 0,0
21.05.2018 14:00:00 19,7 7,9 18 10 - - E 0,0
21.05.2018 13:00:00 19,0 5,9 15 8 - - E 0,0
21.05.2018 12:00:00 19,2 7,3 8 4 - - E 0,0
21.05.2018 11:00:00 18,3 6,9 9 5 - - SE 0,0
21.05.2018 10:00:00 16,8 4,7 9 5 - - SE 0,0
21.05.2018 09:00:00 15,6 8,1 11 6 - - SSE 0,0
21.05.2018 08:00:00 14,1 7,6 8 4 - - S 0,0
21.05.2018 07:00:00 11,6 9,4 8 4 - - SW 0,0
21.05.2018 06:00:00 9,4 7,9 5 3 - - SSW 0,0
21.05.2018 05:00:00 7,6 5,8 11 6 - - S 0,0
21.05.2018 04:00:00 8,4 6,2 8 4 - - SSW 0,0
21.05.2018 03:00:00 7,6 6,4 9 5 - - SSW 0,0
21.05.2018 02:00:00 7,9 6,3 15 8 - - SSW 0,0
21.05.2018 01:00:00 7,2 6,5 15 8 - - S 0,0
21.05.2018 00:00:00 6,7 6,4 9 5 - - SSW 0,0
20.05.2018 23:00:00 8,1 6,4 16 9 - - SE 0,0
20.05.2018 22:00:00 10,1 7,0 18 10 - - SE 0,0
20.05.2018 21:00:00 10,5 7,4 16 9 - - SE 0,0
20.05.2018 20:00:00 12,3 7,9 16 9 - - ESE 0,0
20.05.2018 19:00:00 14,9 8,9 16 9 - - SE 0,0
20.05.2018 18:00:00 16,5 9,5 21 11 - - SE 0,0
20.05.2018 17:00:00 17,8 10,5 21 11 - - SSE 0,0
20.05.2018 16:00:00 18,7 11,0 21 11 - - SSE 0,0
20.05.2018 15:00:00 19,0 11,8 21 11 - - SSE 0,0
20.05.2018 14:00:00 18,2 10,6 15 8 - - S 0,0
20.05.2018 13:00:00 18,2 10,5 21 11 - - S 0,0
20.05.2018 12:00:00 17,7 10,1 18 10 - - S 0,0
20.05.2018 11:00:00 17,0 9,1 16 9 - - S 0,0
20.05.2018 10:00:00 15,3 8,1 13 7 - - S 0,0
20.05.2018 09:00:00 13,4 6,9 13 7 - - S 0,0
20.05.2018 08:00:00 12,1 6,9 15 8 - - S 0,0
20.05.2018 07:00:00 11,1 7,1 11 6 - - S 0,0
20.05.2018 06:00:00 8,9 6,5 11 6 - - S 0,0
20.05.2018 05:00:00 7,4 3,2 8 4 - - S 0,0
20.05.2018 04:00:00 7,0 1,6 9 5 - - SSW 0,0
20.05.2018 03:00:00 9,1 1,6 16 9 - - SSW 0,0
20.05.2018 02:00:00 8,3 1,6 15 8 - - S 0,0
20.05.2018 01:00:00 8,8 1,7 13 7 - - S 0,0
20.05.2018 00:00:00 7,9 1,3 13 7 - - S 0,0
19.05.2018 23:00:00 10,0 1,0 18 10 - - SSE 0,0
19.05.2018 22:00:00 9,9 0,8 22 12 - - SSE 0,0
19.05.2018 21:00:00 11,8 1,1 21 11 - - SSE 0,0
19.05.2018 20:00:00 13,4 3,6 18 10 - - SSE 0,0
19.05.2018 19:00:00 15,0 5,4 18 10 - - SSE 0,0
19.05.2018 18:00:00 16,2 6,5 18 10 - - SSE 0,0
19.05.2018 17:00:00 17,1 7,2 18 10 - - SSE 0,0
19.05.2018 16:00:00 18,2 6,2 15 8 - - S 0,0
19.05.2018 15:00:00 17,6 6,1 15 8 - - SSW 0,0
19.05.2018 14:00:00 17,5 6,7 15 8 - - SW 0,0
19.05.2018 13:00:00 16,8 6,3 16 9 - - S 0,0
19.05.2018 12:00:00 16,2 5,6 15 8 - - S 0,0
19.05.2018 11:00:00 15,5 5,9 11 6 - - SSW 0,0
19.05.2018 10:00:00 14,6 7,0 8 4 - - SW 0,0
19.05.2018 09:00:00 13,5 6,7 4 2 - - SE 0,0
19.05.2018 08:00:00 12,2 7,9 2 1 - - SSE 0,0
19.05.2018 07:00:00 10,0 8,2 4 2 - - SSW 0,0
19.05.2018 06:00:00 7,5 6,0 4 2 - - SSW 0,0
19.05.2018 05:00:00 7,6 4,9 9 5 - - SW 0,0
19.05.2018 04:00:00 8,0 5,1 9 5 - - SW 0,0
19.05.2018 03:00:00 8,1 5,4 9 5 - - WSW 0,0
19.05.2018 02:00:00 7,9 5,1 9 5 - - WSW 0,0
19.05.2018 01:00:00 6,7 3,4 13 7 - - WSW 0,0
19.05.2018 00:00:00 7,1 2,2 11 6 - - SSW 0,0
18.05.2018 23:00:00 6,5 2,5 8 4 - - SSE 0,0
18.05.2018 22:00:00 8,0 2,6 8 4 - - SE 0,0
18.05.2018 21:00:00 9,0 1,9 8 4 - - SE 0,0
18.05.2018 20:00:00 10,9 3,9 8 4 - - SE 0,0
18.05.2018 19:00:00 12,5 4,0 9 5 - - E 0,0
18.05.2018 18:00:00 12,8 4,2 9 5 - - E 0,0
18.05.2018 17:00:00 12,9 3,9 8 4 - - ENE 0,0
18.05.2018 16:00:00 12,9 6,0 11 6 - - E 0,0
18.05.2018 15:00:00 12,8 6,4 11 6 - - ENE 0,0
18.05.2018 14:00:00 12,9 6,6 15 8 - - E 0,0
18.05.2018 13:00:00 13,1 6,8 9 5 - - E 0,0
18.05.2018 12:00:00 13,2 6,1 5 3 - - ENE 0,0
18.05.2018 11:00:00 12,1 2,6 4 2 - - NNE 0,0
18.05.2018 10:00:00 10,3 2,7 5 3 - - WNW 0,0
18.05.2018 09:00:00 8,8 3,5 4 2 - - S 0,0
18.05.2018 08:00:00 6,9 4,7 5 3 - - SSW 0,0
18.05.2018 07:00:00 5,6 5,1 8 4 - - WSW 0,0
18.05.2018 06:00:00 3,9 3,8 5 3 - - W 0,0
18.05.2018 05:00:00 2,5 2,1 5 3 - - W 0,0
18.05.2018 04:00:00 3,3 2,9 5 3 - - NW 0,0
18.05.2018 03:00:00 3,0 2,8 5 3 - - NNW 0,0
18.05.2018 02:00:00 3,7 3,5 8 4 - - NNW 0,0
18.05.2018 01:00:00 3,6 3,3 8 4 - - NNW 0,0
18.05.2018 00:00:00 4,1 3,5 5 3 - - NNW 0,0
17.05.2018 23:00:00 4,1 3,3 8 4 - - N 0,0
17.05.2018 22:00:00 5,1 3,6 8 4 - - N 0,0
17.05.2018 21:00:00 5,5 3,3 9 5 - - N 0,0
17.05.2018 20:00:00 7,0 3,9 13 7 - - N 0,0
17.05.2018 19:00:00 8,2 3,9 13 7 - - N 0,0
17.05.2018 18:00:00 8,3 4,5 16 9 - - N 0,0
17.05.2018 17:00:00 8,6 3,9 16 9 - - N 0,0
17.05.2018 16:00:00 8,9 3,5 16 9 - - NNE 0,0
17.05.2018 15:00:00 8,8 4,3 21 11 - - N 0,0
17.05.2018 14:00:00 8,7 4,3 21 11 - - N 0,0
17.05.2018 13:00:00 9,3 3,9 24 13 - - NNE 0,0
17.05.2018 12:00:00 9,0 4,0 22 12 - - N 0,0
17.05.2018 11:00:00 8,2 3,6 28 15 - - N 0,0
17.05.2018 10:00:00 8,0 3,7 28 15 - - N 0,0
17.05.2018 09:00:00 7,8 4,3 28 15 - - N 0,0
17.05.2018 08:00:00 7,0 4,8 29 16 - - N 0,0
17.05.2018 07:00:00 6,7 5,2 22 12 - - N 0,0
17.05.2018 06:00:00 5,0 4,4 16 9 - - N 0,0
17.05.2018 05:00:00 4,2 3,7 18 10 - - N 0,0
17.05.2018 04:00:00 4,1 3,8 21 11 - - N 0,0
17.05.2018 03:00:00 3,8 3,3 18 10 - - N 0,0
17.05.2018 02:00:00 3,5 2,9 11 6 - - N 0,0
17.05.2018 01:00:00 3,5 2,2 16 9 - - N 0,0
17.05.2018 00:00:00 5,2 3,3 18 10 - - N 0,0
16.05.2018 23:00:00 5,8 3,6 21 11 - - N 0,0
16.05.2018 22:00:00 5,4 3,7 18 10 - - N 0,0
16.05.2018 21:00:00 5,9 3,2 21 11 - - N 0,0
16.05.2018 20:00:00 6,8 3,4 22 12 - - N 0,0
16.05.2018 19:00:00 8,0 3,3 26 14 - - N 0,0
16.05.2018 18:00:00 7,7 2,8 28 15 46 25 N 0,0
16.05.2018 17:00:00 7,8 3,2 31 17 48 26 N 0,0
16.05.2018 16:00:00 8,1 4,3 29 16 50 27 N 0,0

tt = temperature
td = dewpoint
ff = wind speed
fx = gusts
dd = wind direction
rr = precipitation

Next stations